sensor_id;sensor_type;location;lat;lon;timestamp;P1;durP1;ratioP1;P2;durP2;ratioP2
14883;SDS011;7534;50.762;7.000;2023-11-19T00:00:52;1.13;;;0.70;;
14883;SDS011;7534;50.762;7.000;2023-11-19T00:03:18;0.90;;;0.90;;
14883;SDS011;7534;50.762;7.000;2023-11-19T00:05:44;0.90;;;0.90;;
14883;SDS011;7534;50.762;7.000;2023-11-19T00:08:10;0.67;;;0.67;;
14883;SDS011;7534;50.762;7.000;2023-11-19T00:10:36;0.80;;;0.80;;
14883;SDS011;7534;50.762;7.000;2023-11-19T00:13:04;0.70;;;0.70;;
14883;SDS011;7534;50.762;7.000;2023-11-19T00:15:32;0.70;;;0.70;;
14883;SDS011;7534;50.762;7.000;2023-11-19T00:17:58;0.93;;;0.70;;
14883;SDS011;7534;50.762;7.000;2023-11-19T00:20:23;0.70;;;0.70;;
14883;SDS011;7534;50.762;7.000;2023-11-19T00:22:49;1.47;;;0.80;;
14883;SDS011;7534;50.762;7.000;2023-11-19T00:28:05;0.60;;;0.60;;
14883;SDS011;7534;50.762;7.000;2023-11-19T00:30:34;0.60;;;0.60;;
14883;SDS011;7534;50.762;7.000;2023-11-19T00:33:03;0.60;;;0.60;;
14883;SDS011;7534;50.762;7.000;2023-11-19T00:35:42;1.07;;;0.63;;
14883;SDS011;7534;50.762;7.000;2023-11-19T00:38:18;0.57;;;0.57;;
14883;SDS011;7534;50.762;7.000;2023-11-19T00:40:58;1.03;;;0.50;;
14883;SDS011;7534;50.762;7.000;2023-11-19T00:43:33;0.70;;;0.70;;
14883;SDS011;7534;50.762;7.000;2023-11-19T00:46:34;0.80;;;0.50;;
14883;SDS011;7534;50.762;7.000;2023-11-19T00:49:07;0.50;;;0.50;;
14883;SDS011;7534;50.762;7.000;2023-11-19T00:51:41;0.60;;;0.60;;
14883;SDS011;7534;50.762;7.000;2023-11-19T00:54:07;0.67;;;0.60;;
14883;SDS011;7534;50.762;7.000;2023-11-19T00:56:37;0.50;;;0.50;;
14883;SDS011;7534;50.762;7.000;2023-11-19T00:59:04;1.63;;;0.70;;
14883;SDS011;7534;50.762;7.000;2023-11-19T01:01:31;0.40;;;0.40;;
14883;SDS011;7534;50.762;7.000;2023-11-19T01:04:04;1.03;;;0.57;;
14883;SDS011;7534;50.762;7.000;2023-11-19T01:06:33;0.60;;;0.60;;
14883;SDS011;7534;50.762;7.000;2023-11-19T01:08:59;0.57;;;0.50;;
14883;SDS011;7534;50.762;7.000;2023-11-19T01:11:25;0.40;;;0.40;;
14883;SDS011;7534;50.762;7.000;2023-11-19T01:13:51;0.50;;;0.50;;
14883;SDS011;7534;50.762;7.000;2023-11-19T01:16:19;0.40;;;0.40;;
14883;SDS011;7534;50.762;7.000;2023-11-19T01:18:48;0.63;;;0.63;;
14883;SDS011;7534;50.762;7.000;2023-11-19T01:21:15;2.20;;;0.70;;
14883;SDS011;7534;50.762;7.000;2023-11-19T01:23:41;1.13;;;0.60;;
14883;SDS011;7534;50.762;7.000;2023-11-19T01:26:11;1.50;;;0.50;;
14883;SDS011;7534;50.762;7.000;2023-11-19T01:28:37;1.73;;;0.60;;
14883;SDS011;7534;50.762;7.000;2023-11-19T01:31:14;0.50;;;0.50;;
14883;SDS011;7534;50.762;7.000;2023-11-19T01:33:42;0.50;;;0.50;;
14883;SDS011;7534;50.762;7.000;2023-11-19T01:36:14;0.60;;;0.60;;
14883;SDS011;7534;50.762;7.000;2023-11-19T01:38:40;0.60;;;0.60;;
14883;SDS011;7534;50.762;7.000;2023-11-19T01:41:06;0.47;;;0.47;;
14883;SDS011;7534;50.762;7.000;2023-11-19T01:43:59;0.80;;;0.70;;
14883;SDS011;7534;50.762;7.000;2023-11-19T01:46:27;1.33;;;0.70;;
14883;SDS011;7534;50.762;7.000;2023-11-19T01:48:57;0.70;;;0.70;;
14883;SDS011;7534;50.762;7.000;2023-11-19T01:51:32;0.50;;;0.50;;
14883;SDS011;7534;50.762;7.000;2023-11-19T01:54:19;0.87;;;0.80;;
14883;SDS011;7534;50.762;7.000;2023-11-19T01:56:45;0.60;;;0.60;;
14883;SDS011;7534;50.762;7.000;2023-11-19T01:59:13;0.80;;;0.73;;
14883;SDS011;7534;50.762;7.000;2023-11-19T02:01:39;0.70;;;0.70;;
14883;SDS011;7534;50.762;7.000;2023-11-19T02:04:07;0.77;;;0.77;;
14883;SDS011;7534;50.762;7.000;2023-11-19T02:06:41;1.60;;;0.80;;
14883;SDS011;7534;50.762;7.000;2023-11-19T02:11:47;2.67;;;0.90;;
14883;SDS011;7534;50.762;7.000;2023-11-19T02:16:52;0.70;;;0.70;;
14883;SDS011;7534;50.762;7.000;2023-11-19T02:19:21;0.87;;;0.87;;
14883;SDS011;7534;50.762;7.000;2023-11-19T02:21:52;0.80;;;0.80;;
14883;SDS011;7534;50.762;7.000;2023-11-19T02:24:18;1.27;;;0.80;;
14883;SDS011;7534;50.762;7.000;2023-11-19T02:29:40;1.50;;;1.10;;
14883;SDS011;7534;50.762;7.000;2023-11-19T02:32:08;1.17;;;1.07;;
14883;SDS011;7534;50.762;7.000;2023-11-19T02:34:39;1.87;;;1.03;;
14883;SDS011;7534;50.762;7.000;2023-11-19T02:37:05;1.27;;;0.80;;
14883;SDS011;7534;50.762;7.000;2023-11-19T02:39:31;3.23;;;1.37;;
14883;SDS011;7534;50.762;7.000;2023-11-19T02:42:00;5.63;;;1.30;;
14883;SDS011;7534;50.762;7.000;2023-11-19T02:44:25;2.40;;;1.13;;
14883;SDS011;7534;50.762;7.000;2023-11-19T02:46:54;4.97;;;1.60;;
14883;SDS011;7534;50.762;7.000;2023-11-19T02:49:21;3.73;;;1.20;;
14883;SDS011;7534;50.762;7.000;2023-11-19T02:51:47;4.03;;;1.20;;
14883;SDS011;7534;50.762;7.000;2023-11-19T02:54:13;2.53;;;1.27;;
14883;SDS011;7534;50.762;7.000;2023-11-19T02:56:42;5.80;;;1.50;;
14883;SDS011;7534;50.762;7.000;2023-11-19T02:59:08;4.57;;;1.77;;
14883;SDS011;7534;50.762;7.000;2023-11-19T03:01:59;2.17;;;1.23;;
14883;SDS011;7534;50.762;7.000;2023-11-19T03:04:25;2.77;;;1.33;;
14883;SDS011;7534;50.762;7.000;2023-11-19T03:06:51;1.90;;;1.27;;
14883;SDS011;7534;50.762;7.000;2023-11-19T03:09:18;2.57;;;1.00;;
14883;SDS011;7534;50.762;7.000;2023-11-19T03:11:47;4.97;;;1.50;;
14883;SDS011;7534;50.762;7.000;2023-11-19T03:14:15;5.50;;;1.43;;
14883;SDS011;7534;50.762;7.000;2023-11-19T03:16:44;4.40;;;1.73;;
14883;SDS011;7534;50.762;7.000;2023-11-19T03:19:18;3.77;;;1.40;;
14883;SDS011;7534;50.762;7.000;2023-11-19T03:21:49;5.37;;;1.80;;
14883;SDS011;7534;50.762;7.000;2023-11-19T03:24:23;4.23;;;1.77;;
14883;SDS011;7534;50.762;7.000;2023-11-19T03:26:55;6.30;;;2.13;;
14883;SDS011;7534;50.762;7.000;2023-11-19T03:29:22;4.93;;;1.87;;
14883;SDS011;7534;50.762;7.000;2023-11-19T03:31:55;5.60;;;1.90;;
14883;SDS011;7534;50.762;7.000;2023-11-19T03:37:16;6.13;;;2.00;;
14883;SDS011;7534;50.762;7.000;2023-11-19T03:39:45;5.87;;;2.23;;
14883;SDS011;7534;50.762;7.000;2023-11-19T03:42:16;8.70;;;2.50;;
14883;SDS011;7534;50.762;7.000;2023-11-19T03:44:44;9.13;;;3.33;;
14883;SDS011;7534;50.762;7.000;2023-11-19T03:47:10;5.57;;;1.97;;
14883;SDS011;7534;50.762;7.000;2023-11-19T03:49:36;4.80;;;2.03;;
14883;SDS011;7534;50.762;7.000;2023-11-19T03:52:18;6.33;;;2.37;;
14883;SDS011;7534;50.762;7.000;2023-11-19T03:54:49;7.17;;;2.30;;
14883;SDS011;7534;50.762;7.000;2023-11-19T03:57:18;6.90;;;2.00;;
14883;SDS011;7534;50.762;7.000;2023-11-19T04:00:13;6.30;;;2.13;;
14883;SDS011;7534;50.762;7.000;2023-11-19T04:05:44;7.67;;;2.20;;
14883;SDS011;7534;50.762;7.000;2023-11-19T04:08:20;8.43;;;2.20;;
14883;SDS011;7534;50.762;7.000;2023-11-19T04:11:03;5.90;;;2.20;;
14883;SDS011;7534;50.762;7.000;2023-11-19T04:13:37;7.43;;;2.43;;
14883;SDS011;7534;50.762;7.000;2023-11-19T04:16:28;8.30;;;2.40;;
14883;SDS011;7534;50.762;7.000;2023-11-19T04:21:56;9.07;;;2.57;;
14883;SDS011;7534;50.762;7.000;2023-11-19T04:24:27;5.93;;;2.50;;
14883;SDS011;7534;50.762;7.000;2023-11-19T04:27:08;6.50;;;2.43;;
14883;SDS011;7534;50.762;7.000;2023-11-19T04:29:36;8.37;;;2.20;;
14883;SDS011;7534;50.762;7.000;2023-11-19T04:32:11;6.23;;;2.40;;
14883;SDS011;7534;50.762;7.000;2023-11-19T04:34:46;5.57;;;2.03;;
14883;SDS011;7534;50.762;7.000;2023-11-19T04:37:21;4.97;;;1.90;;
14883;SDS011;7534;50.762;7.000;2023-11-19T04:39:52;8.57;;;2.80;;
14883;SDS011;7534;50.762;7.000;2023-11-19T04:42:43;7.97;;;2.73;;
14883;SDS011;7534;50.762;7.000;2023-11-19T04:45:21;6.50;;;2.30;;
14883;SDS011;7534;50.762;7.000;2023-11-19T04:48:02;7.53;;;2.33;;
14883;SDS011;7534;50.762;7.000;2023-11-19T04:50:33;6.63;;;2.30;;
14883;SDS011;7534;50.762;7.000;2023-11-19T04:53:02;4.07;;;1.90;;
14883;SDS011;7534;50.762;7.000;2023-11-19T04:55:54;7.57;;;2.97;;
14883;SDS011;7534;50.762;7.000;2023-11-19T05:01:53;9.87;;;2.90;;
14883;SDS011;7534;50.762;7.000;2023-11-19T05:04:42;9.47;;;2.77;;
14883;SDS011;7534;50.762;7.000;2023-11-19T05:07:15;8.23;;;2.70;;
14883;SDS011;7534;50.762;7.000;2023-11-19T05:09:41;10.40;;;3.07;;
14883;SDS011;7534;50.762;7.000;2023-11-19T05:12:17;14.03;;;2.77;;
14883;SDS011;7534;50.762;7.000;2023-11-19T05:14:49;7.40;;;2.60;;
14883;SDS011;7534;50.762;7.000;2023-11-19T05:17:18;9.67;;;2.60;;
14883;SDS011;7534;50.762;7.000;2023-11-19T05:19:46;8.00;;;2.37;;
14883;SDS011;7534;50.762;7.000;2023-11-19T05:22:29;9.77;;;2.60;;
14883;SDS011;7534;50.762;7.000;2023-11-19T05:24:58;7.73;;;2.70;;
14883;SDS011;7534;50.762;7.000;2023-11-19T05:27:30;7.33;;;2.40;;
14883;SDS011;7534;50.762;7.000;2023-11-19T05:29:59;10.23;;;3.27;;
14883;SDS011;7534;50.762;7.000;2023-11-19T05:32:28;6.47;;;2.70;;
14883;SDS011;7534;50.762;7.000;2023-11-19T05:34:57;9.50;;;2.70;;
14883;SDS011;7534;50.762;7.000;2023-11-19T05:37:26;10.67;;;2.93;;
14883;SDS011;7534;50.762;7.000;2023-11-19T05:39:52;8.60;;;2.60;;
14883;SDS011;7534;50.762;7.000;2023-11-19T05:42:18;7.83;;;2.80;;
14883;SDS011;7534;50.762;7.000;2023-11-19T05:44:44;11.47;;;2.90;;
14883;SDS011;7534;50.762;7.000;2023-11-19T05:47:10;12.20;;;3.27;;
14883;SDS011;7534;50.762;7.000;2023-11-19T05:49:44;12.60;;;3.33;;
14883;SDS011;7534;50.762;7.000;2023-11-19T05:52:17;10.60;;;3.43;;
14883;SDS011;7534;50.762;7.000;2023-11-19T05:54:49;10.60;;;3.50;;
14883;SDS011;7534;50.762;7.000;2023-11-19T05:57:27;11.20;;;3.33;;
14883;SDS011;7534;50.762;7.000;2023-11-19T05:59:56;8.97;;;2.80;;
14883;SDS011;7534;50.762;7.000;2023-11-19T06:02:23;13.60;;;3.77;;
14883;SDS011;7534;50.762;7.000;2023-11-19T08:34:39;14.10;;;3.87;;
14883;SDS011;7534;50.762;7.000;2023-11-19T08:37:10;9.63;;;3.40;;
14883;SDS011;7534;50.762;7.000;2023-11-19T08:39:40;10.70;;;4.03;;
14883;SDS011;7534;50.762;7.000;2023-11-19T08:42:41;8.63;;;3.40;;
14883;SDS011;7534;50.762;7.000;2023-11-19T08:48:19;9.80;;;3.72;;
14883;SDS011;7534;50.762;7.000;2023-11-19T08:50:45;12.15;;;3.95;;
14883;SDS011;7534;50.762;7.000;2023-11-19T08:53:19;11.43;;;3.50;;
14883;SDS011;7534;50.762;7.000;2023-11-19T08:56:22;15.15;;;4.00;;
14883;SDS011;7534;50.762;7.000;2023-11-19T08:59:03;8.07;;;3.38;;
14883;SDS011;7534;50.762;7.000;2023-11-19T09:02:24;9.82;;;3.55;;
14883;SDS011;7534;50.762;7.000;2023-11-19T09:08:06;9.63;;;3.63;;
14883;SDS011;7534;50.762;7.000;2023-11-19T09:10:56;7.88;;;3.30;;
14883;SDS011;7534;50.762;7.000;2023-11-19T09:13:26;10.35;;;3.92;;
14883;SDS011;7534;50.762;7.000;2023-11-19T09:18:41;9.75;;;3.88;;
14883;SDS011;7534;50.762;7.000;2023-11-19T09:21:27;11.35;;;3.70;;
14883;SDS011;7534;50.762;7.000;2023-11-19T09:23:56;9.05;;;3.70;;
14883;SDS011;7534;50.762;7.000;2023-11-19T09:26:32;10.68;;;3.60;;
14883;SDS011;7534;50.762;7.000;2023-11-19T09:29:01;12.00;;;3.70;;
14883;SDS011;7534;50.762;7.000;2023-11-19T09:31:30;11.82;;;4.53;;
14883;SDS011;7534;50.762;7.000;2023-11-19T09:34:01;13.93;;;4.10;;
14883;SDS011;7534;50.762;7.000;2023-11-19T09:36:40;13.15;;;3.88;;
14883;SDS011;7534;50.762;7.000;2023-11-19T09:39:12;16.60;;;4.60;;
14883;SDS011;7534;50.762;7.000;2023-11-19T09:41:44;12.80;;;4.00;;
14883;SDS011;7534;50.762;7.000;2023-11-19T09:44:26;13.88;;;4.43;;
14883;SDS011;7534;50.762;7.000;2023-11-19T09:46:56;16.55;;;4.38;;
14883;SDS011;7534;50.762;7.000;2023-11-19T09:49:26;18.20;;;4.67;;
14883;SDS011;7534;50.762;7.000;2023-11-19T09:51:53;16.13;;;4.00;;
14883;SDS011;7534;50.762;7.000;2023-11-19T09:54:29;11.77;;;4.13;;
14883;SDS011;7534;50.762;7.000;2023-11-19T09:56:56;12.73;;;4.20;;
14883;SDS011;7534;50.762;7.000;2023-11-19T09:59:29;18.53;;;3.97;;
14883;SDS011;7534;50.762;7.000;2023-11-19T10:02:07;14.20;;;4.80;;
14883;SDS011;7534;50.762;7.000;2023-11-19T10:05:33;13.30;;;3.83;;
14883;SDS011;7534;50.762;7.000;2023-11-19T10:08:05;14.87;;;4.60;;
14883;SDS011;7534;50.762;7.000;2023-11-19T10:10:55;11.77;;;4.37;;
14883;SDS011;7534;50.762;7.000;2023-11-19T10:13:45;16.97;;;4.47;;
14883;SDS011;7534;50.762;7.000;2023-11-19T10:19:07;12.93;;;4.07;;
14883;SDS011;7534;50.762;7.000;2023-11-19T10:21:54;14.57;;;4.50;;
14883;SDS011;7534;50.762;7.000;2023-11-19T10:24:50;12.80;;;4.10;;
14883;SDS011;7534;50.762;7.000;2023-11-19T10:27:18;11.40;;;4.63;;
14883;SDS011;7534;50.762;7.000;2023-11-19T10:30:05;14.07;;;4.07;;
14883;SDS011;7534;50.762;7.000;2023-11-19T10:32:42;14.00;;;3.63;;
14883;SDS011;7534;50.762;7.000;2023-11-19T10:35:14;13.07;;;4.10;;
14883;SDS011;7534;50.762;7.000;2023-11-19T10:37:43;11.73;;;3.57;;
14883;SDS011;7534;50.762;7.000;2023-11-19T10:42:45;12.23;;;4.00;;
14883;SDS011;7534;50.762;7.000;2023-11-19T10:45:23;10.17;;;3.73;;
14883;SDS011;7534;50.762;7.000;2023-11-19T10:47:52;13.00;;;3.83;;
14883;SDS011;7534;50.762;7.000;2023-11-19T10:50:21;15.30;;;5.73;;
14883;SDS011;7534;50.762;7.000;2023-11-19T10:53:12;14.73;;;3.60;;
14883;SDS011;7534;50.762;7.000;2023-11-19T11:02:36;14.57;;;4.33;;
14883;SDS011;7534;50.762;7.000;2023-11-19T11:05:07;10.10;;;3.53;;
14883;SDS011;7534;50.762;7.000;2023-11-19T11:07:35;12.80;;;3.58;;
14883;SDS011;7534;50.762;7.000;2023-11-19T12:48:19;11.47;;;2.80;;
14883;SDS011;7534;50.762;7.000;2023-11-19T12:53:25;10.23;;;3.53;;
14883;SDS011;7534;50.762;7.000;2023-11-19T12:55:52;10.60;;;3.10;;
14883;SDS011;7534;50.762;7.000;2023-11-19T12:58:33;9.70;;;3.10;;
14883;SDS011;7534;50.762;7.000;2023-11-19T13:01:02;10.50;;;3.30;;
14883;SDS011;7534;50.762;7.000;2023-11-19T13:03:34;8.80;;;3.00;;
14883;SDS011;7534;50.762;7.000;2023-11-19T13:06:04;8.00;;;2.80;;
14883;SDS011;7534;50.762;7.000;2023-11-19T13:08:38;8.43;;;2.90;;
14883;SDS011;7534;50.762;7.000;2023-11-19T13:11:05;10.30;;;3.07;;
14883;SDS011;7534;50.762;7.000;2023-11-19T13:13:33;9.17;;;2.80;;
14883;SDS011;7534;50.762;7.000;2023-11-19T13:16:19;8.27;;;2.83;;
14883;SDS011;7534;50.762;7.000;2023-11-19T13:18:45;10.03;;;2.80;;
14883;SDS011;7534;50.762;7.000;2023-11-19T13:21:10;8.40;;;3.07;;
14883;SDS011;7534;50.762;7.000;2023-11-19T13:23:36;8.83;;;3.27;;
14883;SDS011;7534;50.762;7.000;2023-11-19T13:26:03;9.50;;;2.80;;
14883;SDS011;7534;50.762;7.000;2023-11-19T13:28:30;10.07;;;3.30;;
14883;SDS011;7534;50.762;7.000;2023-11-19T13:30:57;8.93;;;3.63;;
14883;SDS011;7534;50.762;7.000;2023-11-19T13:33:23;11.07;;;3.67;;
14883;SDS011;7534;50.762;7.000;2023-11-19T13:35:50;11.00;;;3.77;;
14883;SDS011;7534;50.762;7.000;2023-11-19T13:38:15;8.73;;;3.33;;
14883;SDS011;7534;50.762;7.000;2023-11-19T13:40:42;10.00;;;3.43;;
14883;SDS011;7534;50.762;7.000;2023-11-19T13:43:08;11.27;;;3.57;;
14883;SDS011;7534;50.762;7.000;2023-11-19T13:45:34;10.60;;;3.23;;
14883;SDS011;7534;50.762;7.000;2023-11-19T13:47:59;7.83;;;3.80;;
14883;SDS011;7534;50.762;7.000;2023-11-19T13:50:25;11.40;;;3.50;;
14883;SDS011;7534;50.762;7.000;2023-11-19T13:52:53;10.10;;;3.63;;
14883;SDS011;7534;50.762;7.000;2023-11-19T13:55:19;11.20;;;4.17;;
14883;SDS011;7534;50.762;7.000;2023-11-19T13:57:45;11.07;;;3.23;;
14883;SDS011;7534;50.762;7.000;2023-11-19T14:00:12;11.27;;;3.23;;
14883;SDS011;7534;50.762;7.000;2023-11-19T14:02:42;8.30;;;3.17;;
14883;SDS011;7534;50.762;7.000;2023-11-19T14:05:09;11.13;;;3.33;;
14883;SDS011;7534;50.762;7.000;2023-11-19T14:07:41;10.47;;;3.67;;
14883;SDS011;7534;50.762;7.000;2023-11-19T14:10:08;11.10;;;3.60;;
14883;SDS011;7534;50.762;7.000;2023-11-19T14:12:37;9.60;;;3.07;;
14883;SDS011;7534;50.762;7.000;2023-11-19T14:15:04;9.03;;;3.33;;
14883;SDS011;7534;50.762;7.000;2023-11-19T14:17:35;10.53;;;3.30;;
14883;SDS011;7534;50.762;7.000;2023-11-19T14:20:02;8.60;;;3.38;;
14883;SDS011;7534;50.762;7.000;2023-11-19T14:22:46;11.70;;;3.92;;
14883;SDS011;7534;50.762;7.000;2023-11-19T14:25:15;9.60;;;3.07;;
14883;SDS011;7534;50.762;7.000;2023-11-19T14:27:41;10.77;;;3.37;;
14883;SDS011;7534;50.762;7.000;2023-11-19T14:30:11;8.47;;;2.83;;
14883;SDS011;7534;50.762;7.000;2023-11-19T14:32:39;9.80;;;3.00;;
14883;SDS011;7534;50.762;7.000;2023-11-19T14:35:07;9.77;;;3.37;;
14883;SDS011;7534;50.762;7.000;2023-11-19T14:37:33;8.83;;;2.70;;
14883;SDS011;7534;50.762;7.000;2023-11-19T14:39:59;9.93;;;2.37;;
14883;SDS011;7534;50.762;7.000;2023-11-19T14:42:27;6.90;;;2.50;;
14883;SDS011;7534;50.762;7.000;2023-11-19T14:44:53;6.93;;;2.43;;
14883;SDS011;7534;50.762;7.000;2023-11-19T14:47:20;8.80;;;2.13;;
14883;SDS011;7534;50.762;7.000;2023-11-19T14:49:46;6.53;;;2.47;;
14883;SDS011;7534;50.762;7.000;2023-11-19T14:52:12;5.83;;;2.67;;
14883;SDS011;7534;50.762;7.000;2023-11-19T14:54:38;6.13;;;2.10;;
14883;SDS011;7534;50.762;7.000;2023-11-19T14:57:04;8.33;;;2.40;;
14883;SDS011;7534;50.762;7.000;2023-11-19T14:59:33;8.00;;;2.33;;
14883;SDS011;7534;50.762;7.000;2023-11-19T15:01:59;8.50;;;2.60;;
14883;SDS011;7534;50.762;7.000;2023-11-19T15:04:28;8.07;;;2.27;;
14883;SDS011;7534;50.762;7.000;2023-11-19T15:06:56;6.17;;;2.60;;
14883;SDS011;7534;50.762;7.000;2023-11-19T15:09:23;9.67;;;2.93;;
14883;SDS011;7534;50.762;7.000;2023-11-19T15:11:53;9.07;;;3.00;;
14883;SDS011;7534;50.762;7.000;2023-11-19T15:14:19;7.33;;;2.70;;
14883;SDS011;7534;50.762;7.000;2023-11-19T15:16:50;7.77;;;3.07;;
14883;SDS011;7534;50.762;7.000;2023-11-19T15:19:16;11.57;;;3.60;;
14883;SDS011;7534;50.762;7.000;2023-11-19T15:21:42;10.40;;;3.57;;
14883;SDS011;7534;50.762;7.000;2023-11-19T15:24:09;9.37;;;2.90;;
14883;SDS011;7534;50.762;7.000;2023-11-19T15:26:35;9.43;;;2.90;;
14883;SDS011;7534;50.762;7.000;2023-11-19T15:29:03;10.33;;;3.30;;
14883;SDS011;7534;50.762;7.000;2023-11-19T15:31:30;11.13;;;3.60;;
14883;SDS011;7534;50.762;7.000;2023-11-19T15:33:56;9.97;;;3.10;;
14883;SDS011;7534;50.762;7.000;2023-11-19T15:36:22;7.73;;;2.73;;
14883;SDS011;7534;50.762;7.000;2023-11-19T15:38:48;7.93;;;2.90;;
14883;SDS011;7534;50.762;7.000;2023-11-19T15:41:14;12.23;;;3.47;;
14883;SDS011;7534;50.762;7.000;2023-11-19T15:43:40;11.37;;;3.80;;
14883;SDS011;7534;50.762;7.000;2023-11-19T15:46:07;9.10;;;3.07;;
14883;SDS011;7534;50.762;7.000;2023-11-19T15:48:33;9.03;;;3.10;;
14883;SDS011;7534;50.762;7.000;2023-11-19T15:51:00;10.47;;;3.40;;
14883;SDS011;7534;50.762;7.000;2023-11-19T15:53:25;12.00;;;3.27;;
14883;SDS011;7534;50.762;7.000;2023-11-19T15:55:51;12.60;;;4.17;;
14883;SDS011;7534;50.762;7.000;2023-11-19T15:58:20;11.83;;;3.33;;
14883;SDS011;7534;50.762;7.000;2023-11-19T16:00:47;14.27;;;3.80;;
14883;SDS011;7534;50.762;7.000;2023-11-19T16:03:14;12.87;;;3.73;;
14883;SDS011;7534;50.762;7.000;2023-11-19T16:05:58;7.83;;;2.90;;
14883;SDS011;7534;50.762;7.000;2023-11-19T16:08:24;12.27;;;4.50;;
14883;SDS011;7534;50.762;7.000;2023-11-19T16:10:50;11.13;;;4.13;;
14883;SDS011;7534;50.762;7.000;2023-11-19T16:13:16;10.20;;;3.40;;
14883;SDS011;7534;50.762;7.000;2023-11-19T16:15:42;13.93;;;3.27;;
14883;SDS011;7534;50.762;7.000;2023-11-19T16:18:08;11.60;;;3.50;;
14883;SDS011;7534;50.762;7.000;2023-11-19T16:20:35;8.63;;;3.47;;
14883;SDS011;7534;50.762;7.000;2023-11-19T16:23:01;11.03;;;3.33;;
14883;SDS011;7534;50.762;7.000;2023-11-19T16:25:30;11.43;;;3.30;;
14883;SDS011;7534;50.762;7.000;2023-11-19T16:27:56;10.80;;;2.97;;
14883;SDS011;7534;50.762;7.000;2023-11-19T16:30:22;11.27;;;3.63;;
14883;SDS011;7534;50.762;7.000;2023-11-19T16:32:53;10.93;;;3.40;;
14883;SDS011;7534;50.762;7.000;2023-11-19T16:35:23;11.37;;;3.37;;
14883;SDS011;7534;50.762;7.000;2023-11-19T16:37:50;8.43;;;3.03;;
14883;SDS011;7534;50.762;7.000;2023-11-19T16:40:16;10.77;;;3.03;;
14883;SDS011;7534;50.762;7.000;2023-11-19T16:42:43;11.53;;;3.13;;
14883;SDS011;7534;50.762;7.000;2023-11-19T16:45:13;10.73;;;3.47;;
14883;SDS011;7534;50.762;7.000;2023-11-19T16:47:40;9.63;;;3.73;;
14883;SDS011;7534;50.762;7.000;2023-11-19T16:50:06;10.13;;;3.80;;
14883;SDS011;7534;50.762;7.000;2023-11-19T16:52:33;11.03;;;3.30;;
14883;SDS011;7534;50.762;7.000;2023-11-19T16:54:58;10.10;;;3.70;;
14883;SDS011;7534;50.762;7.000;2023-11-19T16:57:31;10.40;;;3.47;;
14883;SDS011;7534;50.762;7.000;2023-11-19T16:59:57;11.33;;;4.03;;
14883;SDS011;7534;50.762;7.000;2023-11-19T17:02:26;11.23;;;3.37;;
14883;SDS011;7534;50.762;7.000;2023-11-19T17:04:52;12.63;;;3.20;;
14883;SDS011;7534;50.762;7.000;2023-11-19T17:07:18;12.10;;;3.77;;
14883;SDS011;7534;50.762;7.000;2023-11-19T17:09:43;10.17;;;3.30;;
14883;SDS011;7534;50.762;7.000;2023-11-19T17:12:09;9.87;;;2.93;;
14883;SDS011;7534;50.762;7.000;2023-11-19T17:14:37;11.33;;;3.63;;
14883;SDS011;7534;50.762;7.000;2023-11-19T17:17:04;8.33;;;3.43;;
14883;SDS011;7534;50.762;7.000;2023-11-19T17:19:30;10.37;;;3.70;;
14883;SDS011;7534;50.762;7.000;2023-11-19T17:21:56;12.57;;;3.10;;
14883;SDS011;7534;50.762;7.000;2023-11-19T17:24:22;10.40;;;3.07;;
14883;SDS011;7534;50.762;7.000;2023-11-19T17:26:48;11.90;;;3.70;;
14883;SDS011;7534;50.762;7.000;2023-11-19T17:29:15;12.73;;;3.50;;
14883;SDS011;7534;50.762;7.000;2023-11-19T17:31:42;8.20;;;2.97;;
14883;SDS011;7534;50.762;7.000;2023-11-19T17:34:11;9.17;;;3.10;;
14883;SDS011;7534;50.762;7.000;2023-11-19T17:36:40;9.97;;;3.50;;
14883;SDS011;7534;50.762;7.000;2023-11-19T17:39:07;9.37;;;2.93;;
14883;SDS011;7534;50.762;7.000;2023-11-19T17:41:33;14.20;;;3.23;;
14883;SDS011;7534;50.762;7.000;2023-11-19T17:43:59;10.30;;;3.00;;
14883;SDS011;7534;50.762;7.000;2023-11-19T17:46:24;11.77;;;3.20;;
14883;SDS011;7534;50.762;7.000;2023-11-19T17:48:50;12.13;;;3.57;;
14883;SDS011;7534;50.762;7.000;2023-11-19T17:51:17;10.60;;;3.37;;
14883;SDS011;7534;50.762;7.000;2023-11-19T17:53:44;10.73;;;2.97;;
14883;SDS011;7534;50.762;7.000;2023-11-19T17:56:10;10.47;;;3.43;;
14883;SDS011;7534;50.762;7.000;2023-11-19T17:58:36;14.63;;;3.53;;
14883;SDS011;7534;50.762;7.000;2023-11-19T18:01:03;11.13;;;3.90;;
14883;SDS011;7534;50.762;7.000;2023-11-19T18:03:30;7.73;;;3.20;;
14883;SDS011;7534;50.762;7.000;2023-11-19T18:05:56;8.73;;;3.03;;
14883;SDS011;7534;50.762;7.000;2023-11-19T18:08:26;13.07;;;4.10;;
14883;SDS011;7534;50.762;7.000;2023-11-19T18:10:51;9.87;;;3.30;;
14883;SDS011;7534;50.762;7.000;2023-11-19T18:13:17;10.33;;;3.27;;
14883;SDS011;7534;50.762;7.000;2023-11-19T18:15:43;11.57;;;3.07;;
14883;SDS011;7534;50.762;7.000;2023-11-19T18:18:09;8.63;;;2.90;;
14883;SDS011;7534;50.762;7.000;2023-11-19T18:20:35;8.03;;;3.50;;
14883;SDS011;7534;50.762;7.000;2023-11-19T18:23:01;8.33;;;3.13;;
14883;SDS011;7534;50.762;7.000;2023-11-19T18:25:29;11.93;;;3.50;;
14883;SDS011;7534;50.762;7.000;2023-11-19T18:27:54;12.47;;;3.17;;
14883;SDS011;7534;50.762;7.000;2023-11-19T18:30:20;10.10;;;2.80;;
14883;SDS011;7534;50.762;7.000;2023-11-19T18:32:46;7.73;;;2.53;;
14883;SDS011;7534;50.762;7.000;2023-11-19T18:35:12;11.70;;;3.00;;
14883;SDS011;7534;50.762;7.000;2023-11-19T18:37:42;8.13;;;2.80;;
14883;SDS011;7534;50.762;7.000;2023-11-19T18:40:12;9.77;;;3.10;;
14883;SDS011;7534;50.762;7.000;2023-11-19T18:42:44;7.87;;;2.70;;
14883;SDS011;7534;50.762;7.000;2023-11-19T18:45:09;7.53;;;2.40;;
14883;SDS011;7534;50.762;7.000;2023-11-19T18:47:35;10.23;;;2.93;;
14883;SDS011;7534;50.762;7.000;2023-11-19T18:50:03;9.47;;;2.60;;
14883;SDS011;7534;50.762;7.000;2023-11-19T18:52:30;7.40;;;2.87;;
14883;SDS011;7534;50.762;7.000;2023-11-19T18:54:56;8.50;;;2.60;;
14883;SDS011;7534;50.762;7.000;2023-11-19T18:57:23;6.40;;;2.70;;
14883;SDS011;7534;50.762;7.000;2023-11-19T18:59:49;6.17;;;2.00;;
14883;SDS011;7534;50.762;7.000;2023-11-19T19:02:15;10.40;;;2.77;;
14883;SDS011;7534;50.762;7.000;2023-11-19T19:04:44;8.70;;;2.40;;
14883;SDS011;7534;50.762;7.000;2023-11-19T19:07:10;6.00;;;2.53;;
14883;SDS011;7534;50.762;7.000;2023-11-19T19:09:44;8.20;;;2.80;;
14883;SDS011;7534;50.762;7.000;2023-11-19T19:12:20;8.13;;;3.33;;
14883;SDS011;7534;50.762;7.000;2023-11-19T19:14:49;7.60;;;2.67;;
14883;SDS011;7534;50.762;7.000;2023-11-19T19:17:16;7.27;;;2.23;;
14883;SDS011;7534;50.762;7.000;2023-11-19T19:19:42;6.40;;;2.37;;
14883;SDS011;7534;50.762;7.000;2023-11-19T19:22:08;6.90;;;2.30;;
14883;SDS011;7534;50.762;7.000;2023-11-19T19:24:34;7.60;;;2.83;;
14883;SDS011;7534;50.762;7.000;2023-11-19T19:27:02;7.27;;;2.60;;
14883;SDS011;7534;50.762;7.000;2023-11-19T19:29:31;6.53;;;2.87;;
14883;SDS011;7534;50.762;7.000;2023-11-19T19:31:56;5.13;;;2.17;;
14883;SDS011;7534;50.762;7.000;2023-11-19T19:34:25;5.50;;;2.13;;
14883;SDS011;7534;50.762;7.000;2023-11-19T19:36:53;7.23;;;2.10;;
14883;SDS011;7534;50.762;7.000;2023-11-19T19:39:23;7.33;;;2.10;;
14883;SDS011;7534;50.762;7.000;2023-11-19T19:41:49;7.93;;;2.53;;
14883;SDS011;7534;50.762;7.000;2023-11-19T19:44:15;5.57;;;2.00;;
14883;SDS011;7534;50.762;7.000;2023-11-19T19:46:47;4.73;;;1.90;;
14883;SDS011;7534;50.762;7.000;2023-11-19T19:49:13;5.73;;;2.43;;
14883;SDS011;7534;50.762;7.000;2023-11-19T19:51:40;7.70;;;2.70;;
14883;SDS011;7534;50.762;7.000;2023-11-19T19:54:07;4.60;;;2.00;;
14883;SDS011;7534;50.762;7.000;2023-11-19T19:56:33;6.67;;;2.40;;
14883;SDS011;7534;50.762;7.000;2023-11-19T19:58:59;5.53;;;2.83;;
14883;SDS011;7534;50.762;7.000;2023-11-19T20:01:26;5.13;;;2.10;;
14883;SDS011;7534;50.762;7.000;2023-11-19T20:03:53;7.43;;;2.10;;
14883;SDS011;7534;50.762;7.000;2023-11-19T20:06:21;4.90;;;2.20;;
14883;SDS011;7534;50.762;7.000;2023-11-19T20:08:48;7.97;;;2.50;;